createdAt,value
2023-03-04T00:00:37.600Z,19.80
2023-03-04T00:03:07.199Z,20.35
2023-03-04T00:05:35.274Z,41.17
2023-03-04T00:08:03.416Z,39.92
2023-03-04T00:10:31.573Z,46.35
2023-03-04T00:12:59.631Z,41.40
2023-03-04T00:15:28.958Z,37.63
2023-03-04T00:17:59.606Z,38.67
2023-03-04T00:20:30.946Z,28.65
2023-03-04T00:22:58.935Z,37.00
2023-03-04T00:25:26.969Z,36.60
2023-03-04T00:27:54.935Z,38.38
2023-03-04T00:30:22.983Z,21.92
2023-03-04T00:32:52.464Z,30.70
2023-03-04T00:35:20.537Z,39.20
2023-03-04T00:37:48.784Z,33.95
2023-03-04T00:40:18.561Z,25.48
2023-03-04T00:42:46.568Z,27.52
2023-03-04T00:45:14.601Z,33.90
2023-03-04T00:47:42.654Z,32.63
2023-03-04T00:50:13.356Z,36.45
2023-03-04T00:52:41.338Z,47.58
2023-03-04T00:55:10.594Z,40.05
2023-03-04T00:57:38.582Z,39.88
2023-03-04T01:00:09.958Z,38.90
2023-03-04T01:02:37.944Z,28.55
2023-03-04T01:05:06.928Z,30.08
2023-03-04T01:07:36.366Z,33.60
2023-03-04T01:10:09.171Z,33.00
2023-03-04T01:12:37.169Z,33.72
2023-03-04T01:15:06.248Z,31.08
2023-03-04T01:17:34.378Z,34.42
2023-03-04T01:20:02.341Z,34.45
2023-03-04T01:22:30.345Z,26.00
2023-03-04T01:24:59.779Z,37.67
2023-03-04T01:27:27.854Z,36.00
2023-03-04T01:29:56.151Z,33.08
2023-03-04T01:32:24.356Z,33.03
2023-03-04T01:34:52.472Z,31.92
2023-03-04T01:37:20.547Z,29.92
2023-03-04T01:39:48.643Z,38.72
2023-03-04T01:42:20.105Z,30.13
2023-03-04T01:44:49.545Z,31.67
2023-03-04T01:47:22.006Z,28.45
2023-03-04T01:49:55.145Z,29.63
2023-03-04T01:52:23.448Z,21.63
2023-03-04T01:54:51.903Z,27.15
2023-03-04T01:57:23.969Z,28.92
2023-03-04T02:00:18.456Z,24.20
2023-03-04T02:02:50.996Z,35.90
2023-03-04T02:05:19.417Z,37.70
2023-03-04T02:07:47.651Z,26.85
2023-03-04T02:10:15.686Z,33.45
2023-03-04T02:12:46.182Z,26.08
2023-03-04T02:15:14.694Z,22.77
2023-03-04T02:17:44.617Z,25.42
2023-03-04T02:20:23.886Z,32.67
2023-03-04T02:22:59.000Z,36.70
2023-03-04T02:25:34.243Z,28.70
2023-03-04T02:28:03.686Z,24.60
2023-03-04T02:30:32.336Z,27.77
2023-03-04T02:33:00.769Z,30.83
2023-03-04T02:35:28.949Z,28.77
2023-03-04T02:37:59.748Z,20.42
2023-03-04T02:40:31.849Z,36.45
2023-03-04T02:43:01.136Z,27.40
2023-03-04T02:45:42.242Z,30.00
2023-03-04T02:48:11.279Z,37.13
2023-03-04T02:50:43.499Z,31.40
2023-03-04T02:53:12.218Z,30.33
2023-03-04T02:55:41.503Z,26.67
2023-03-04T02:58:10.748Z,39.97
2023-03-04T03:00:42.391Z,28.92
2023-03-04T03:03:10.547Z,33.85
2023-03-04T03:05:39.841Z,31.23
2023-03-04T03:08:08.787Z,20.20
2023-03-04T03:10:37.112Z,23.13
2023-03-04T03:13:07.295Z,27.00
2023-03-04T03:15:35.570Z,26.85
2023-03-04T03:18:05.063Z,30.63
2023-03-04T03:20:32.991Z,24.13
2023-03-04T03:23:00.998Z,20.45
2023-03-04T03:25:29.048Z,17.65
2023-03-04T03:27:57.028Z,27.20
2023-03-04T03:30:25.109Z,22.58
2023-03-04T03:32:53.374Z,22.08
2023-03-04T03:35:23.047Z,31.33
2023-03-04T03:37:51.783Z,28.88
2023-03-04T03:40:19.979Z,20.70
2023-03-04T03:42:50.120Z,25.42
2023-03-04T03:45:18.190Z,18.27
2023-03-04T03:47:46.951Z,35.22
2023-03-04T03:50:15.045Z,39.00
2023-03-04T03:52:44.411Z,36.20
2023-03-04T03:55:12.540Z,27.58
2023-03-04T03:57:40.549Z,31.95
2023-03-04T04:00:10.877Z,24.83
2023-03-04T04:02:41.942Z,29.27
2023-03-04T04:05:11.384Z,23.45
2023-03-04T04:07:39.740Z,35.35
2023-03-04T04:10:11.633Z,26.92
2023-03-04T04:12:39.780Z,33.85
2023-03-04T04:15:09.434Z,27.67
2023-03-04T04:17:37.505Z,21.83
2023-03-04T04:20:06.404Z,29.73
2023-03-04T04:22:36.084Z,26.98
2023-03-04T04:25:04.938Z,20.48
2023-03-04T04:27:35.760Z,27.23
2023-03-04T04:30:03.979Z,24.00
2023-03-04T04:32:32.043Z,24.60
2023-03-04T04:35:00.140Z,28.23
2023-03-04T04:37:28.163Z,24.73
2023-03-04T04:39:56.162Z,29.75
2023-03-04T04:42:24.558Z,25.50
2023-03-04T04:44:53.944Z,22.15
2023-03-04T04:47:22.127Z,25.95
2023-03-04T04:49:50.193Z,23.38
2023-03-04T04:52:18.272Z,20.95
2023-03-04T04:54:46.262Z,16.55
2023-03-04T04:57:14.220Z,20.98
2023-03-04T04:59:44.706Z,22.63
2023-03-04T05:02:13.962Z,28.50
2023-03-04T05:04:42.192Z,28.33
2023-03-04T05:07:10.254Z,28.58
2023-03-04T05:09:38.463Z,28.23
2023-03-04T05:12:06.781Z,21.08
2023-03-04T05:14:34.807Z,19.15
2023-03-04T05:17:02.841Z,23.30
2023-03-04T05:19:32.197Z,23.63
2023-03-04T05:22:02.547Z,30.50
2023-03-04T05:24:30.608Z,20.85
2023-03-04T05:26:58.628Z,33.20
2023-03-04T05:29:29.727Z,18.70
2023-03-04T05:32:00.606Z,19.83
2023-03-04T05:34:28.723Z,22.83
2023-03-04T05:36:58.072Z,15.45
2023-03-04T05:39:26.138Z,26.08
2023-03-04T05:41:54.355Z,23.73
2023-03-04T05:44:22.572Z,22.48
2023-03-04T05:46:50.724Z,24.48
2023-03-04T05:49:18.978Z,17.65
2023-03-04T05:51:48.224Z,14.43
2023-03-04T05:54:18.908Z,23.42
2023-03-04T05:56:47.080Z,21.27
2023-03-04T05:59:20.475Z,24.13
2023-03-04T06:01:49.014Z,24.67
2023-03-04T06:04:17.184Z,25.33
2023-03-04T06:06:46.582Z,21.52
2023-03-04T06:09:14.872Z,25.13
2023-03-04T06:11:44.149Z,21.05
2023-03-04T06:14:20.107Z,18.40
2023-03-04T06:16:51.011Z,17.45
2023-03-04T06:19:19.057Z,20.35
2023-03-04T06:21:47.039Z,18.58
2023-03-04T06:24:15.023Z,19.40
2023-03-04T06:26:44.368Z,20.38
2023-03-04T06:29:15.875Z,20.10
2023-03-04T06:31:43.861Z,15.00
2023-03-04T06:34:13.167Z,13.75
2023-03-04T06:36:43.091Z,18.02
2023-03-04T06:39:11.431Z,18.05
2023-03-04T06:41:39.759Z,17.48
2023-03-04T06:44:09.135Z,18.50
2023-03-04T06:46:37.449Z,22.52
2023-03-04T06:49:05.732Z,16.10
2023-03-04T06:51:36.130Z,19.48
2023-03-04T06:54:04.321Z,14.15
2023-03-04T06:56:32.605Z,15.35
2023-03-04T06:59:00.649Z,20.48
2023-03-04T07:01:30.635Z,19.35
2023-03-04T07:03:59.621Z,19.02
2023-03-04T07:06:29.522Z,19.60
2023-03-04T07:08:58.643Z,16.90
2023-03-04T07:11:27.194Z,15.68
2023-03-04T07:13:55.267Z,13.60
2023-03-04T07:16:25.942Z,13.55
2023-03-04T07:18:55.512Z,17.17
2023-03-04T07:21:23.541Z,16.08
2023-03-04T07:23:51.522Z,21.00
2023-03-04T07:26:19.520Z,16.20
2023-03-04T07:28:48.000Z,16.67
2023-03-04T07:31:23.538Z,15.57
2023-03-04T07:36:21.095Z,20.38
2023-03-04T07:38:51.090Z,23.35
2023-03-04T07:41:19.711Z,17.65
2023-03-04T07:43:48.043Z,17.80
2023-03-04T07:46:16.227Z,12.82
2023-03-04T07:48:44.655Z,18.40
2023-03-04T07:51:14.675Z,15.65
2023-03-04T07:53:46.471Z,15.45
2023-03-04T07:56:17.471Z,16.92
2023-03-04T07:58:45.856Z,16.65
2023-03-04T08:01:15.766Z,17.95
2023-03-04T08:03:44.775Z,25.55
2023-03-04T08:06:18.337Z,21.17
2023-03-04T08:08:48.514Z,14.48
2023-03-04T08:11:18.235Z,20.80
2023-03-04T08:13:46.546Z,19.33
2023-03-04T08:16:19.185Z,17.17
2023-03-04T08:18:49.796Z,19.67
2023-03-04T08:21:19.615Z,17.73
2023-03-04T08:23:50.011Z,21.55
2023-03-04T08:26:21.288Z,21.98
2023-03-04T08:28:49.680Z,17.73
2023-03-04T08:31:22.223Z,21.25
2023-03-04T08:33:59.239Z,17.67
2023-03-04T08:36:27.436Z,20.48
2023-03-04T08:38:56.735Z,18.08
2023-03-04T08:41:26.142Z,13.90
2023-03-04T08:43:57.302Z,16.02
2023-03-04T08:46:27.364Z,14.07
2023-03-04T08:48:55.443Z,17.48
2023-03-04T08:51:23.704Z,14.45
2023-03-04T08:53:51.673Z,13.07
2023-03-04T08:56:21.173Z,12.60
2023-03-04T08:58:49.253Z,14.23
2023-03-04T09:01:17.737Z,13.18
2023-03-04T09:03:45.815Z,15.18
2023-03-04T09:06:16.918Z,12.90
2023-03-04T09:08:47.237Z,14.30
2023-03-04T09:11:15.375Z,14.20
2023-03-04T09:13:44.923Z,13.80
2023-03-04T09:16:14.763Z,12.88
2023-03-04T09:18:43.660Z,7.63
2023-03-04T09:21:12.311Z,18.67
2023-03-04T09:23:43.627Z,11.93
2023-03-04T09:26:19.080Z,13.13
2023-03-04T09:28:51.718Z,17.63
2023-03-04T09:31:20.122Z,17.08
2023-03-04T09:33:48.326Z,13.35
2023-03-04T09:36:17.717Z,13.07
2023-03-04T09:38:45.973Z,14.95
2023-03-04T09:41:19.424Z,11.32
2023-03-04T09:43:51.293Z,14.57
2023-03-04T09:46:27.669Z,14.88
2023-03-04T09:48:57.571Z,13.85
2023-03-04T09:51:44.202Z,9.73
2023-03-04T09:54:19.561Z,8.02
2023-03-04T09:56:47.729Z,9.75
2023-03-04T09:59:26.223Z,8.82
2023-03-04T10:01:56.524Z,23.35
2023-03-04T10:04:32.824Z,11.50
2023-03-04T10:07:02.609Z,20.60
2023-03-04T10:09:44.909Z,21.98
2023-03-04T10:12:18.845Z,23.50
2023-03-04T10:14:51.211Z,26.77
2023-03-04T10:17:23.137Z,33.83
2023-03-04T10:19:59.921Z,38.30
2023-03-04T10:22:36.806Z,38.42
2023-03-04T10:25:19.643Z,41.75
2023-03-04T10:27:53.181Z,40.80
2023-03-04T10:30:38.113Z,40.55
2023-03-04T10:33:13.348Z,39.50
2023-03-04T10:35:44.802Z,43.90
2023-03-04T10:38:14.620Z,44.53
2023-03-04T10:40:45.635Z,44.30
2023-03-04T10:43:16.920Z,43.20
2023-03-04T10:45:47.441Z,42.53
2023-03-04T10:48:24.005Z,41.00
2023-03-04T10:50:52.125Z,34.55
2023-03-04T10:53:33.214Z,40.05
2023-03-04T10:56:02.720Z,42.53
2023-03-04T10:58:31.086Z,32.38
2023-03-04T11:01:06.905Z,34.50
2023-03-04T11:03:38.534Z,32.83
2023-03-04T11:06:13.505Z,31.27
2023-03-04T11:08:42.420Z,32.05
2023-03-04T11:11:25.548Z,29.38
2023-03-04T11:13:57.297Z,33.75
2023-03-04T11:16:29.583Z,32.78
2023-03-04T11:19:04.193Z,26.10
2023-03-04T11:21:40.709Z,28.98
2023-03-04T11:24:28.748Z,30.77
2023-03-04T11:27:04.395Z,36.97
2023-03-04T11:29:39.136Z,37.28
2023-03-04T11:32:14.202Z,33.50
2023-03-04T11:34:47.920Z,29.80
2023-03-04T11:37:23.750Z,34.15
2023-03-04T11:39:55.502Z,26.50
2023-03-04T11:42:32.709Z,30.23
2023-03-04T11:45:00.826Z,37.38
2023-03-04T11:47:49.847Z,30.17
2023-03-04T11:50:30.390Z,30.02
2023-03-04T11:53:17.840Z,25.60
2023-03-04T11:55:52.550Z,28.25
2023-03-04T11:58:43.325Z,25.43
2023-03-04T12:01:15.180Z,26.75
2023-03-04T12:04:22.766Z,29.65
2023-03-04T12:07:06.908Z,28.63
2023-03-04T12:09:43.880Z,31.17
2023-03-04T12:12:42.910Z,28.08
2023-03-04T12:15:20.136Z,30.55
2023-03-04T12:18:20.705Z,29.10
2023-03-04T12:21:05.363Z,26.38
2023-03-04T12:23:55.461Z,27.50
2023-03-04T12:26:33.969Z,27.77
2023-03-04T12:29:08.821Z,23.48
2023-03-04T12:31:39.992Z,19.55
2023-03-04T12:34:40.506Z,18.42
2023-03-04T12:37:27.848Z,24.85
2023-03-04T12:40:07.927Z,28.10
2023-03-04T12:42:47.199Z,26.33
2023-03-04T12:45:23.428Z,23.73
2023-03-04T12:48:02.413Z,25.10
2023-03-04T12:50:38.081Z,24.73
2023-03-04T12:53:20.231Z,29.23
2023-03-04T12:55:48.770Z,30.02
2023-03-04T12:58:20.717Z,25.58
2023-03-04T13:00:56.861Z,28.48
2023-03-04T13:03:34.768Z,26.80
2023-03-04T13:06:17.849Z,27.58
2023-03-04T13:08:58.180Z,24.08
2023-03-04T13:11:54.970Z,28.02
2023-03-04T13:14:29.305Z,24.75
2023-03-04T13:17:01.575Z,21.73
2023-03-04T13:19:51.023Z,19.77
2023-03-04T13:22:48.045Z,20.27
2023-03-04T13:25:35.952Z,16.83
2023-03-04T13:28:22.628Z,15.35
2023-03-04T13:31:20.487Z,15.93
2023-03-04T13:34:02.512Z,17.15
2023-03-04T13:37:04.445Z,14.43
2023-03-04T13:39:34.130Z,15.63
2023-03-04T13:42:05.283Z,18.33
2023-03-04T13:45:02.042Z,20.30
2023-03-04T13:47:49.649Z,22.67
2023-03-04T13:50:29.948Z,23.15
2023-03-04T13:53:04.680Z,26.35
2023-03-04T13:55:38.915Z,25.77
2023-03-04T13:58:22.647Z,26.05
2023-03-04T14:00:53.335Z,25.65
2023-03-04T14:03:24.660Z,19.98
2023-03-04T14:06:13.281Z,19.55
2023-03-04T14:08:41.484Z,20.58
2023-03-04T14:11:20.306Z,17.65
2023-03-04T14:13:49.947Z,17.95
2023-03-04T14:16:22.005Z,16.13
2023-03-04T14:18:59.545Z,28.60
2023-03-04T14:21:27.746Z,37.00
2023-03-04T14:24:08.402Z,45.08
2023-03-04T14:26:39.302Z,47.05
2023-03-04T14:29:22.821Z,51.00
2023-03-04T14:31:51.658Z,50.65
2023-03-04T14:34:32.101Z,45.13
2023-03-04T14:37:00.450Z,47.42
2023-03-04T14:39:31.087Z,45.78
2023-03-04T14:42:05.193Z,44.17
2023-03-04T14:44:38.493Z,48.20
2023-03-04T14:47:18.170Z,43.58
2023-03-04T14:49:46.376Z,41.03
2023-03-04T14:52:34.535Z,42.08
2023-03-04T14:55:17.343Z,39.40
2023-03-04T14:57:47.594Z,40.97
2023-03-04T15:00:29.173Z,33.40
2023-03-04T15:02:58.571Z,32.55
2023-03-04T15:05:29.184Z,32.97
2023-03-04T15:07:59.064Z,25.42
2023-03-04T15:10:29.587Z,32.15
2023-03-04T15:13:01.480Z,34.25
2023-03-04T15:15:40.957Z,36.65
2023-03-04T15:18:23.867Z,36.95
2023-03-04T15:21:00.490Z,36.25
2023-03-04T15:23:29.492Z,31.20
2023-03-04T15:25:59.394Z,30.45
2023-03-04T15:28:31.324Z,36.10
2023-03-04T15:31:03.990Z,32.92
2023-03-04T15:33:32.105Z,31.40
2023-03-04T15:36:05.546Z,33.92
2023-03-04T15:38:43.822Z,27.08
2023-03-04T15:41:13.440Z,31.90
2023-03-04T15:43:41.428Z,25.10
2023-03-04T15:46:12.396Z,23.63
2023-03-04T15:48:40.505Z,20.17
2023-03-04T15:51:15.244Z,20.45
2023-03-04T15:53:48.252Z,15.53
2023-03-04T15:56:19.656Z,12.15
2023-03-04T15:58:55.279Z,15.57
2023-03-04T16:01:25.121Z,11.15
2023-03-04T16:03:53.984Z,13.45
2023-03-04T16:06:23.530Z,13.13
2023-03-04T16:08:53.357Z,12.10
2023-03-04T16:11:23.877Z,9.18
2023-03-04T16:13:52.134Z,15.10
2023-03-04T16:16:20.561Z,9.00
2023-03-04T16:18:50.299Z,9.90
2023-03-04T16:21:23.161Z,9.93
2023-03-04T16:23:52.696Z,9.90
2023-03-04T16:26:23.123Z,24.80
2023-03-04T16:28:54.530Z,12.85
2023-03-04T16:31:23.272Z,11.88
2023-03-04T16:33:52.740Z,10.13
2023-03-04T16:36:22.274Z,11.27
2023-03-04T16:38:51.383Z,10.90
2023-03-04T16:41:24.675Z,11.77
2023-03-04T16:43:53.008Z,11.93
2023-03-04T16:46:22.126Z,13.02
2023-03-04T16:48:51.328Z,12.32
2023-03-04T16:51:22.469Z,11.10
2023-03-04T16:53:53.061Z,11.38
2023-03-04T16:56:21.606Z,14.75
2023-03-04T16:58:54.072Z,14.77
2023-03-04T17:01:24.211Z,17.10
2023-03-04T17:03:52.466Z,14.45
2023-03-04T17:06:22.616Z,18.08
2023-03-04T17:08:50.900Z,15.63
2023-03-04T17:11:20.924Z,14.82
2023-03-04T17:13:50.244Z,14.35
2023-03-04T17:16:20.853Z,14.73
2023-03-04T17:18:49.004Z,8.93
2023-03-04T17:21:19.968Z,14.23
2023-03-04T17:23:49.477Z,10.35
2023-03-04T17:26:20.788Z,14.18
2023-03-04T17:28:49.310Z,10.70
2023-03-04T17:31:19.164Z,9.68
2023-03-04T17:33:48.019Z,14.32
2023-03-04T17:36:19.592Z,12.18
2023-03-04T17:38:49.458Z,13.23
2023-03-04T17:41:18.667Z,9.93
2023-03-04T17:43:47.629Z,15.48
2023-03-04T17:46:17.342Z,12.80
2023-03-04T17:48:46.326Z,12.80
2023-03-04T17:51:14.405Z,13.73
2023-03-04T17:53:42.673Z,12.88
2023-03-04T17:56:13.306Z,13.50
2023-03-04T17:58:41.430Z,11.88
2023-03-04T18:01:17.003Z,11.95
2023-03-04T18:03:47.126Z,15.73
2023-03-04T18:06:15.286Z,20.42
2023-03-04T18:08:43.314Z,12.18
2023-03-04T18:11:12.985Z,11.57
2023-03-04T18:13:46.406Z,13.23
2023-03-04T18:16:23.080Z,12.65
2023-03-04T18:18:51.987Z,11.55
2023-03-04T18:21:20.786Z,10.65
2023-03-04T18:23:52.329Z,12.98
2023-03-04T18:26:23.562Z,8.90
2023-03-04T18:28:51.653Z,12.75
2023-03-04T18:31:20.062Z,11.38
2023-03-04T18:33:48.058Z,11.18
2023-03-04T18:36:16.345Z,12.18
2023-03-04T18:38:44.948Z,15.63
2023-03-04T18:41:14.563Z,13.40
2023-03-04T18:43:44.347Z,20.15
2023-03-04T18:46:28.013Z,12.63
2023-03-04T18:48:59.897Z,12.50
2023-03-04T18:51:30.767Z,16.88
2023-03-04T18:53:59.324Z,14.35
2023-03-04T18:56:34.506Z,15.75
2023-03-04T18:59:04.497Z,13.93
2023-03-04T19:01:32.509Z,12.27
2023-03-04T19:04:04.636Z,16.35
2023-03-04T19:06:34.237Z,16.10
2023-03-04T19:09:02.545Z,14.30
2023-03-04T19:11:31.628Z,10.63
2023-03-04T19:13:59.735Z,14.05
2023-03-04T19:16:29.105Z,13.38
2023-03-04T19:18:57.271Z,10.85
2023-03-04T19:21:25.253Z,13.05
2023-03-04T19:23:53.415Z,12.63
2023-03-04T19:26:21.433Z,13.88
2023-03-04T19:28:49.423Z,13.23
2023-03-04T19:31:17.413Z,14.85
2023-03-04T19:33:46.724Z,11.50
2023-03-04T19:36:14.732Z,12.93
2023-03-04T19:38:43.602Z,12.65
2023-03-04T19:41:14.334Z,11.43
2023-03-04T19:43:42.548Z,15.18
2023-03-04T19:46:11.410Z,19.83
2023-03-04T19:48:41.090Z,14.15
2023-03-04T19:51:16.900Z,13.45
2023-03-04T19:53:45.000Z,17.45
2023-03-04T19:56:13.411Z,15.95
2023-03-04T19:58:41.621Z,14.90
2023-03-04T20:01:20.917Z,15.63
2023-03-04T20:03:48.905Z,14.60
2023-03-04T20:06:18.328Z,10.80
2023-03-04T20:08:46.322Z,13.90
2023-03-04T20:11:14.684Z,14.82
2023-03-04T20:13:47.738Z,16.65
2023-03-04T20:16:16.088Z,17.08
2023-03-04T20:18:44.231Z,16.55
2023-03-04T20:21:13.384Z,14.55
2023-03-04T20:23:42.989Z,13.15
2023-03-04T20:26:11.157Z,12.90
2023-03-04T20:28:50.605Z,9.48
2023-03-04T20:31:22.184Z,8.18
2023-03-04T20:33:51.545Z,6.32
2023-03-04T20:36:23.547Z,12.60
2023-03-04T20:39:04.332Z,9.05
2023-03-04T20:41:36.349Z,9.48
2023-03-04T20:44:06.121Z,13.20
2023-03-04T20:46:39.043Z,12.02
2023-03-04T20:49:09.286Z,11.73
2023-03-04T20:51:39.425Z,15.55
2023-03-04T20:54:10.003Z,13.68
2023-03-04T20:56:40.095Z,9.85
2023-03-04T20:59:09.996Z,14.25
2023-03-04T21:01:39.932Z,9.52
2023-03-04T21:04:08.185Z,11.15
2023-03-04T21:06:39.558Z,12.68
2023-03-04T21:09:12.486Z,10.43
2023-03-04T21:11:41.170Z,17.13
2023-03-04T21:14:13.108Z,10.30
2023-03-04T21:16:41.671Z,11.60
2023-03-04T21:19:15.719Z,10.57
2023-03-04T21:21:44.331Z,12.98
2023-03-04T21:24:16.068Z,13.38
2023-03-04T21:26:47.383Z,12.85
2023-03-04T21:29:16.488Z,15.27
2023-03-04T21:31:49.615Z,10.75
2023-03-04T21:34:20.954Z,10.60
2023-03-04T21:36:49.024Z,18.88
2023-03-04T21:39:22.683Z,13.00
2023-03-04T21:41:50.731Z,12.65
2023-03-04T21:44:28.058Z,14.32
2023-03-04T21:46:57.385Z,15.15
2023-03-04T21:49:25.813Z,13.98
2023-03-04T21:51:53.944Z,16.85
2023-03-04T21:54:23.664Z,16.85
2023-03-04T21:56:51.745Z,13.15
2023-03-04T21:59:21.043Z,15.45
2023-03-04T22:01:49.197Z,14.85
2023-03-04T22:04:17.228Z,19.08
2023-03-04T22:06:45.222Z,12.68
2023-03-04T22:09:13.306Z,16.35
2023-03-04T22:11:43.223Z,17.92
2023-03-04T22:14:12.062Z,16.35
2023-03-04T22:16:54.037Z,14.95
2023-03-04T22:19:23.056Z,19.63
2023-03-04T22:21:51.801Z,15.20
2023-03-04T22:24:20.456Z,12.10
2023-03-04T22:26:53.569Z,10.52
2023-03-04T22:29:21.622Z,12.13
2023-03-04T22:31:49.822Z,16.08
2023-03-04T22:34:18.323Z,14.25
2023-03-04T22:36:49.947Z,11.77
2023-03-04T22:39:19.544Z,10.63
2023-03-04T22:41:49.194Z,17.35
2023-03-04T22:44:17.330Z,11.30
2023-03-04T22:46:45.367Z,13.15
2023-03-04T22:49:14.944Z,18.35
2023-03-04T22:51:44.048Z,14.02
2023-03-04T22:54:13.691Z,12.07
2023-03-04T22:56:41.759Z,13.50
2023-03-04T22:59:11.480Z,15.32
2023-03-04T23:01:41.890Z,14.13
2023-03-04T23:04:09.978Z,9.30
2023-03-04T23:06:38.054Z,10.90
2023-03-04T23:09:06.100Z,12.55
2023-03-04T23:11:36.408Z,11.82
2023-03-04T23:14:06.878Z,15.20
2023-03-04T23:16:37.174Z,17.05
2023-03-04T23:19:05.503Z,14.95
2023-03-04T23:21:34.577Z,22.70
2023-03-04T23:24:03.503Z,17.45
2023-03-04T23:26:33.560Z,17.92
2023-03-04T23:29:02.869Z,15.90
2023-03-04T23:31:31.355Z,14.52
2023-03-04T23:34:01.744Z,12.77
2023-03-04T23:36:31.669Z,19.92
2023-03-04T23:39:00.589Z,18.13
2023-03-04T23:41:29.945Z,14.57
2023-03-04T23:44:00.503Z,16.65
2023-03-04T23:46:29.677Z,17.52
2023-03-04T23:48:58.046Z,14.25
2023-03-04T23:51:30.050Z,12.68
2023-03-04T23:53:59.440Z,18.50
2023-03-04T23:56:29.653Z,16.58
2023-03-04T23:58:59.282Z,14.75
